• Join FlightAware (Why Join?)
  • Login
  • US Flag 
03:51AM EST


 

Airport Tracker/Info


-or-


 

Live Flight TrackerFlight Track Log ✈ VP-BLX ✈ 17-Nov-2013 ✈ UUEE / SVO - VIDP / DEL

Flight Track Log - Related Links

Times and Time Zones

All times are in EST time to prevent confusion due to time zone crossing. See the VP-BLX flight status page for this flight to view local times or setup timezone preferences in your user account.

Time Position Orientation Groundspeed Altitude Reporting Facility
EST Latitude Longitude Course Direction KTS MPH feet Rate Location/Type
11:42AM 55.9740 37.4350 331° Northwest 74 85  Level FlightAware
11:43AM 55.9690 37.3970 257° West 155 178 1,400 2,520 Climbing FlightAware
11:43AM 55.9620 37.3520 254° West 136 157 3,200 1,920 Climbing FlightAware
11:44AM 55.9560 37.3050 257° West 190 219 3,800 1,680 Climbing FlightAware
11:45AM 55.9620 37.2430 280° West 204 235 5,400 2,700 Climbing FlightAware
11:45AM 55.9960 37.2270 345° North 230 265 7,300 2,760 Climbing FlightAware
11:46AM 56.0330 37.2670 31° Northeast 292 336 8,800 1,380 Climbing FlightAware
11:46AM 56.0400 37.3560 82° East 320 368 9,000 120 Climbing FlightAware
11:47AM 56.0500 37.4580 80° East 314 361 9,000 360 Level FlightAware
11:48AM 56.0570 37.5190 78° East 314 361 9,400 1,260 Climbing FlightAware
11:48AM 56.0660 37.6140 80° East 331 381 10,300 1,320 Climbing FlightAware
11:49AM 56.0600 37.7310 95° East 384 442 11,100 1,200 Climbing FlightAware
11:49AM 56.0520 37.8640 96° East 405 466 11,900 1,020 Climbing FlightAware
11:50AM 56.0430 38.0500 95° East 411 473 12,800 1,740 Climbing FlightAware
11:51AM 56.0340 38.2500 95° East 419 482 15,300 2,280 Climbing FlightAware
11:52AM 56.0270 38.4550 93° East 446 513 17,300 2,160 Climbing FlightAware
11:53AM 56.0230 38.6010 93° East 458 527 18,800 2,280 Climbing FlightAware
11:54AM 56.0190 38.7250 93° East 467 537 20,000 1,920 Climbing FlightAware
11:55AM 56.0020 38.9780 97° East 494 568 21,900 1,740 Climbing FlightAware
11:55AM 55.9930 39.1050 97° East 506 582 22,800 1,620 Climbing FlightAware
11:56AM 55.9830 39.2570 97° East 516 594 23,800 1,200 Climbing FlightAware
11:56AM 55.9740 39.4000 96° East 539 620 24,200 960 Climbing FlightAware
11:57AM 55.9620 39.5780 97° East 558 642 25,000 1,380 Climbing FlightAware
11:58AM 55.9490 39.7630 97° East 567 652 26,100 1,500 Climbing FlightAware
11:58AM 55.9350 39.9120 99° East 578 665 26,800 1,380 Climbing FlightAware
11:59AM 55.9130 40.0390 107° East 584 672 27,500 1,380 Climbing FlightAware
11:59AM 55.8840 40.2000 108° East 590 679 28,300 1,380 Climbing FlightAware
12:00PM 55.8600 40.3320 108° East 593 682 29,000 1,800 Climbing FlightAware
12:00PM 55.8330 40.4810 108° East 589 678 30,100 1,560 Climbing FlightAware
12:01PM 55.7960 40.6850 108° East 592 681 31,000 1,320 Climbing FlightAware
12:01PM 55.7690 40.8340 108° East 594 684 31,800 1,500 Climbing FlightAware
12:02PM 55.7420 40.9760 109° East 592 681 32,600 1,500 Climbing FlightAware
12:03PM 55.6870 41.2690 108° East 586 674 34,200 1,560 Climbing FlightAware
12:03PM 55.6660 41.3800 109° East 580 667 34,900 660 Climbing FlightAware
12:04PM 55.6280 41.5760 109° East 579 666 35,000 60 Climbing FlightAware
12:05PM 55.6010 41.7200 108° East 576 663 35,000  Level FlightAware
12:05PM 55.5700 41.8790 109° East 575 662 35,000  Level FlightAware
12:06PM 55.5140 42.1640 109° East 575 662 35,000  Level FlightAware
12:07PM 55.4870 42.2990 109° East 574 661 35,000  Level FlightAware
12:07PM 55.4620 42.4220 110° East 573 659 35,000  Level FlightAware
12:08PM 55.4080 42.6890 110° East 573 659 35,000  Level FlightAware
12:09PM 55.3790 42.8310 110° East 574 661 35,000  Level FlightAware
12:10PM 55.3180 43.1250 110° East 572 658 35,000  Level FlightAware
12:10PM 55.2950 43.2350 110° East 571 657 35,000  Level FlightAware
12:12PM 55.2360 43.5180 110° East 569 655 35,000  Level FlightAware
12:12PM 55.2000 43.6860 111° Southeast 570 656 35,000  Level FlightAware
12:13PM 55.1480 43.9290 110° East 569 655 35,000  Level FlightAware
12:14PM 55.1070 44.1180 111° Southeast 568 654 35,000  Level FlightAware
12:15PM 55.0660 44.3010 111° Southeast 566 651 35,000  Level FlightAware
12:15PM 55.0360 44.4380 111° Southeast 566 651 35,000  Level FlightAware
12:16PM 54.9980 44.6060 111° Southeast 567 652 35,000  Level FlightAware
12:16PM 54.9730 44.7220 111° Southeast 566 651 35,000  Level FlightAware
12:17PM 54.9350 44.8900 111° Southeast 567 652 35,000  Level FlightAware
12:18PM 54.8970 45.0540 112° Southeast 567 652 35,000  Level FlightAware
12:18PM 54.8700 45.1750 111° Southeast 568 654 35,000  Level FlightAware
12:19PM 54.8240 45.3730 112° Southeast 568 654 35,000  Level FlightAware
12:20PM 54.7260 45.6490 122° Southeast 566 651 35,000  Level FlightAware
12:21PM 54.6650 45.7750 130° Southeast 562 647 35,000  Level FlightAware
12:21PM 54.6120 45.8650 135° Southeast 559 643 35,000  Level FlightAware
12:22PM 54.5460 45.9830 134° Southeast 560 644 35,000  Level FlightAware
12:22PM 54.4650 46.1200 135° Southeast 559 643 35,000  Level FlightAware
12:23PM 54.3610 46.2880 137° Southeast 556 640 35,000  Level FlightAware
12:24PM 54.2880 46.4040 137° Southeast 556 640 35,000  Level FlightAware
12:25PM 54.2150 46.5190 137° Southeast 554 638 35,000  Level FlightAware
12:25PM 54.1610 46.6050 137° Southeast 553 636 35,000  Level FlightAware
12:26PM 54.0820 46.7530 132° Southeast 555 639 35,000  Level FlightAware
12:27PM 54.0300 46.8750 126° Southeast 553 636 35,000  Level FlightAware
12:27PM 53.9700 47.0150 126° Southeast 551 634 35,000  Level FlightAware
12:28PM 53.9210 47.1250 127° Southeast 551 634 35,000  Level FlightAware
12:29PM 53.8250 47.3380 127° Southeast 550 633 35,000  Level FlightAware
12:30PM 53.7250 47.5590 127° Southeast 551 634 35,000  Level FlightAware
12:30PM 53.6910 47.6320 128° Southeast 551 634 35,000  Level FlightAware
12:31PM 53.6230 47.7820 127° Southeast 550 633 35,000  Level FlightAware
12:32PM 53.5270 47.9900 128° Southeast 548 631 35,000  Level FlightAware
12:33PM 53.4740 48.1040 128° Southeast 549 632 35,000  Level FlightAware
12:33PM 53.3990 48.2640 128° Southeast 549 632 35,000  Level FlightAware
12:34PM 53.3470 48.3750 128° Southeast 549 632 35,000  Level FlightAware
12:34PM 53.2990 48.4750 129° Southeast 550 633 35,000  Level FlightAware
12:35PM 53.2030 48.6780 128° Southeast 548 631 35,000  Level FlightAware
12:36PM 53.1000 48.8930 129° Southeast 548 631 35,000  Level FlightAware
12:37PM 53.0470 49.0060 128° Southeast 548 631 35,000  Level FlightAware
12:38PM 52.9840 49.1340 129° Southeast 547 629 35,000  Level FlightAware
12:39PM 52.9030 49.3020 129° Southeast 543 625 35,000  Level FlightAware
12:40PM 52.7980 49.5150 129° Southeast 541 623 35,000  Level FlightAware
12:40PM 52.7660 49.5800 129° Southeast 543 625 35,000  Level FlightAware
12:41PM 52.7130 49.6880 129° Southeast 544 626 35,000  Level FlightAware
12:41PM 52.6370 49.8410 129° Southeast 544 626 35,000  Level FlightAware
12:42PM 52.5870 49.9280 133° Southeast 546 628 35,000  Level FlightAware
12:43PM 52.4550 50.0960 142° Southeast 544 626 35,000  Level FlightAware
12:43PM 52.3970 50.1690 142° Southeast 544 626 35,000  Level FlightAware
12:44PM 52.3230 50.2600 143° Southeast 544 626 35,000  Level FlightAware
12:45PM 52.2540 50.3390 145° Southeast 544 626 35,000  Level FlightAware
12:45PM 52.1700 50.4340 145° Southeast 543 625 35,000  Level FlightAware
12:46PM 52.1100 50.5020 145° Southeast 542 624 35,000  Level FlightAware
12:46PM 52.0250 50.5980 145° Southeast 539 620 35,000  Level FlightAware
12:47PM 51.9560 50.6750 145° Southeast 543 625 35,000  Level FlightAware
12:48PM 51.8860 50.7520 146° Southeast 541 623 35,000  Level FlightAware
12:48PM 51.8100 50.8360 146° Southeast 540 621 35,000  Level FlightAware
12:49PM 51.7410 50.9120 146° Southeast 540 621 35,000  Level FlightAware
12:49PM 51.6640 50.9970 146° Southeast 541 623 35,000  Level FlightAware
12:50PM 51.5470 51.1210 147° Southeast 539 620 35,000  Level FlightAware
12:51PM 51.4510 51.2220 147° Southeast 538 619 35,000  Level FlightAware
12:52PM 51.3850 51.2910 147° Southeast 537 618 35,000  Level FlightAware
12:52PM 51.3070 51.3730 147° Southeast 536 617 35,000  Level FlightAware
12:53PM 51.2510 51.4310 147° Southeast 534 615 35,000  Level FlightAware
12:54PM 51.1200 51.5800 144° Southeast 532 612 35,000  Level FlightAware
12:54PM 51.0660 51.6880 128° Southeast 519 597 35,000  Level FlightAware
12:55PM 51.0120 51.7980 128° Southeast 518 596 35,000  Level FlightAware
12:56PM 50.9550 51.9110 129° Southeast 519 597 35,000  Level FlightAware
12:56PM 50.9110 51.9950 130° Southeast 521 600 35,000  Level FlightAware
12:57PM 50.8690 52.0780 129° Southeast 520 598 35,000  Level FlightAware
12:58PM 50.8780 52.0610 310° West 521 600 35,000  Level FlightAware
12:59PM 50.6790 52.4390 130° Southeast 519 597 35,000  Level FlightAware
01:00PM 50.6230 52.5420 131° Southeast 516 594 35,000  Level FlightAware
01:00PM 50.5260 52.7240 130° Southeast 511 588 35,000  Level FlightAware
01:01PM 50.4730 52.8240 130° Southeast 510 587 35,000  Level FlightAware
01:02PM 50.4170 52.9290 130° Southeast 510 587 35,000  Level FlightAware
01:02PM 50.3680 53.0180 131° Southeast 509 586 35,000  Level FlightAware
01:03PM 50.3380 53.0740 130° Southeast 508 585 35,000  Level FlightAware
01:03PM 50.2520 53.2320 130° Southeast 507 583 35,000  Level FlightAware
01:04PM 50.2070 53.3140 131° Southeast 507 583 35,000  Level FlightAware
01:05PM 50.1430 53.4310 130° Southeast 507 583 35,000  Level FlightAware
01:06PM 50.0580 53.5880 130° Southeast 507 583 35,000  Level FlightAware
01:06PM 49.9960 53.7020 130° Southeast 507 583 35,000  Level FlightAware
01:07PM 49.9500 53.7880 130° Southeast 507 583 35,000  Level FlightAware
01:08PM 49.9040 53.8730 130° Southeast 507 583 35,000  Level FlightAware
01:08PM 49.8580 53.9590 130° Southeast 507 583 35,000  Level FlightAware
01:09PM 49.7180 54.1920 133° Southeast 501 577 35,000  Level FlightAware
01:10PM 49.6870 54.2470 131° Southeast 501 577 35,000  Level FlightAware
01:11PM 49.6080 54.3870 131° Southeast 501 577 35,000  Level FlightAware
01:11PM 49.5440 54.4980 132° Southeast 500 575 35,000  Level FlightAware
01:12PM 49.4870 54.5960 132° Southeast 498 573 35,000  Level FlightAware
01:12PM 49.4370 54.6850 131° Southeast 498 573 35,000  Level FlightAware
01:13PM 49.3910 54.7670 131° Southeast 498 573 35,000  Level FlightAware
01:14PM 49.2830 54.9490 132° Southeast 569 655 35,000  Level FlightAware
01:15PM 49.2260 55.0450 132° Southeast 492 566 35,000  Level FlightAware
01:15PM 49.1820 55.1210 132° Southeast 492 566 35,000  Level FlightAware
01:16PM 49.1320 55.2080 131° Southeast 492 566 35,000  Level FlightAware
01:17PM 49.0360 55.3690 132° Southeast 493 567 35,000  Level FlightAware
01:18PM 48.9890 55.4480 132° Southeast 493 567 35,000  Level FlightAware
01:18PM 48.9420 55.5270 132° Southeast 493 567 35,000  Level FlightAware
01:19PM 48.8730 55.6420 132° Southeast 487 560 35,000  Level FlightAware
01:19PM 48.8230 55.7270 132° Southeast 487 560 35,000  Level FlightAware
01:20PM 48.7330 55.8780 132° Southeast 487 560 35,000  Level FlightAware
01:21PM 48.7010 55.9320 132° Southeast 487 560 35,000  Level FlightAware
01:21PM 48.6550 56.0090 132° Southeast 487 560 35,000  Level FlightAware
01:22PM 48.6070 56.0890 132° Southeast 487 560 35,000  Level FlightAware
01:22PM 48.5750 56.1430 132° Southeast 487 560 35,000  Level FlightAware
01:23PM 48.5290 56.2200 132° Southeast 487 560 35,000  Level FlightAware
01:24PM 48.4520 56.3490 132° Southeast 487 560 35,000  Level FlightAware
01:25PM 48.3600 56.5030 132° Southeast 487 560 35,000  Level FlightAware
01:26PM 48.2830 56.6320 132° Southeast 487 560 35,000  Level FlightAware
01:27PM 48.2370 56.7090 132° Southeast 487 560 35,000  Level FlightAware
01:27PM 48.1910 56.7850 132° Southeast 487 560 35,000  Level FlightAware
01:28PM 48.1440 56.8620 132° Southeast 487 560 35,000  Level FlightAware
01:31PM 47.9552 57.1521 134° Southeast  Level Estimated
01:32PM 47.8790 57.2684 134° Southeast  Level Estimated
01:33PM 47.8026 57.3843 134° Southeast  Level Estimated
01:34PM 47.7262 57.4998 135° Southeast  Level Estimated
01:35PM 47.6496 57.6150 135° Southeast  Level Estimated
01:36PM 47.5729 57.7299 135° Southeast  Level Estimated
01:37PM 47.4961 57.8444 135° Southeast  Level Estimated
01:38PM 47.4191 57.9586 135° Southeast  Level Estimated
01:39PM 47.3421 58.0725 135° Southeast  Level Estimated
01:40PM 47.2649 58.1860 135° Southeast  Level Estimated
01:41PM 47.1877 58.2992 135° Southeast  Level Estimated
01:42PM 47.1103 58.4121 135° Southeast  Level Estimated
01:43PM 47.0328 58.5247 135° Southeast  Level Estimated
01:44PM 46.9552 58.6369 135° Southeast  Level Estimated
01:45PM 46.8775 58.7488 135° Southeast  Level Estimated
01:46PM 46.7997 58.8604 136° Southeast  Level Estimated
01:47PM 46.7218 58.9716 136° Southeast  Level Estimated
01:48PM 46.6438 59.0825 136° Southeast  Level Estimated
01:49PM 46.5656 59.1931 136° Southeast  Level Estimated
01:50PM 46.4874 59.3034 136° Southeast  Level Estimated
01:51PM 46.4090 59.4134 136° Southeast  Level Estimated
01:52PM 46.3306 59.5231 136° Southeast  Level Estimated
01:53PM 46.2520 59.6324 136° Southeast  Level Estimated
01:54PM 46.1734 59.7414 136° Southeast  Level Estimated
01:55PM 46.0946 59.8502 136° Southeast  Level Estimated
01:56PM 46.0157 59.9586 136° Southeast  Level Estimated
01:57PM 45.9368 60.0667 136° Southeast  Level Estimated
01:58PM 45.8577 60.1744 136° Southeast  Level Estimated
01:59PM 45.7785 60.2819 137° Southeast  Level Estimated
02:00PM 45.6992 60.3891 137° Southeast  Level Estimated
02:01PM 45.6199 60.4960 137° Southeast  Level Estimated
02:02PM 45.5404 60.6026 137° Southeast  Level Estimated
02:03PM 45.4608 60.7088 137° Southeast  Level Estimated
02:04PM 45.3812 60.8148 137° Southeast  Level Estimated
02:05PM 45.3014 60.9205 137° Southeast  Level Estimated
02:06PM 45.2215 61.0259 137° Southeast  Level Estimated
02:07PM 45.1416 61.1310 137° Southeast  Level Estimated
02:08PM 45.0615 61.2357 137° Southeast  Level Estimated
02:09PM 44.9814 61.3402 137° Southeast  Level Estimated
02:10PM 44.9011 61.4444 137° Southeast  Level Estimated
02:11PM 44.8208 61.5483 137° Southeast  Level Estimated
02:12PM 44.7403 61.6520 138° Southeast  Level Estimated
02:13PM 44.6598 61.7553 138° Southeast  Level Estimated
02:14PM 44.5792 61.8583 138° Southeast  Level Estimated
02:15PM 44.4985 61.9611 138° Southeast  Level Estimated
02:16PM 44.4177 62.0636 138° Southeast  Level Estimated
02:17PM 44.3368 62.1658 138° Southeast  Level Estimated
02:18PM 44.2558 62.2677 138° Southeast  Level Estimated
02:19PM 44.1747 62.3693 138° Southeast  Level Estimated
02:20PM 44.0935 62.4707 138° Southeast  Level Estimated
02:21PM 44.0123 62.5717 138° Southeast  Level Estimated
02:22PM 43.9309 62.6725 138° Southeast  Level Estimated
02:23PM 43.8495 62.7731 138° Southeast  Level Estimated
02:24PM 43.7680 62.8733 138° Southeast  Level Estimated
02:25PM 43.6864 62.9733 138° Southeast  Level Estimated
02:26PM 43.6046 63.0730 139° Southeast  Level Estimated
02:27PM 43.5229 63.1724 139° Southeast  Level Estimated
02:28PM 43.4410 63.2716 139° Southeast  Level Estimated
02:29PM 43.3590 63.3705 139° Southeast  Level Estimated
02:30PM 43.2770 63.4691 139° Southeast  Level Estimated
02:31PM 43.1949 63.5675 139° Southeast  Level Estimated
02:32PM 43.1127 63.6656 139° Southeast  Level Estimated
02:33PM 43.0304 63.7634 139° Southeast  Level Estimated
02:34PM 42.9480 63.8610 139° Southeast  Level Estimated
02:35PM 42.8655 63.9583 139° Southeast  Level Estimated
02:36PM 42.7830 64.0553 139° Southeast  Level Estimated
02:37PM 42.7004 64.1521 139° Southeast  Level Estimated
02:37PM 41.0930 64.9730 139° Southeast 445 512 35,000  Level FlightAware
02:38PM 42.6177 64.2487 139° Southeast  Level Estimated
02:38PM 41.0470 64.9970 159° South 445 512 35,000  Level FlightAware
02:38PM 40.9840 65.0310 158° South 445 512 35,000  Level FlightAware
02:39PM 40.8540 65.0990 158° South 446 513 35,000  Level FlightAware
02:40PM 40.7710 65.1430 158° South 447 514 35,000 60 Level FlightAware
02:41PM 40.6910 65.1850 158° South 449 517 35,100 600 Climbing FlightAware
02:42PM 40.5570 65.2560 158° South 462 532 36,100 960 Climbing FlightAware
02:43PM 40.4850 65.2940 158° South 461 531 36,800 780 Climbing FlightAware
02:43PM 40.4230 65.3260 159° South 466 536 37,000 120 Climbing FlightAware
02:44PM 40.3200 65.3800 158° South 465 535 37,000  Level FlightAware
02:45PM 40.2330 65.4250 158° South 463 533 37,000  Level FlightAware
02:45PM 40.1530 65.4660 159° South 461 531 37,000  Level FlightAware
02:46PM 40.0780 65.5050 158° South 461 531 37,000  Level FlightAware
02:46PM 40.0520 65.5180 159° South 461 531 37,000  Level FlightAware
02:47PM 39.9450 65.5730 158° South 462 532 37,000  Level FlightAware
02:48PM 39.8370 65.6290 158° South 464 534 37,000  Level FlightAware
02:49PM 39.7090 65.6940 159° South 466 536 37,000  Level FlightAware
02:50PM 39.6520 65.7230 159° South 467 537 37,000  Level FlightAware
02:50PM 39.5390 65.7800 159° South 466 536 37,000  Level FlightAware
02:52PM 39.4030 65.8480 159° South 462 532 37,000  Level FlightAware
02:53PM 39.2860 65.9070 159° South 460 529 37,000  Level FlightAware
02:53PM 39.2150 65.9420 159° South 459 528 37,000  Level FlightAware
02:54PM 39.1500 65.9760 158° South 459 528 37,000  Level FlightAware
02:54PM 39.0900 66.0080 158° South 459 528 37,000  Level FlightAware
02:55PM 39.0300 66.0390 158° South 459 528 37,000  Level FlightAware
02:56PM 38.9290 66.0910 158° South 459 528 37,000  Level FlightAware
02:57PM 38.8290 66.1430 158° South 459 528 37,000  Level FlightAware
02:58PM 38.7270 66.1960 158° South 459 528 37,000  Level FlightAware
02:58PM 38.6870 66.2170 158° South 459 528 37,000  Level FlightAware
02:59PM 38.5860 66.2690 158° South 459 528 37,000  Level FlightAware
03:00PM 38.5460 66.2900 158° South 459 528 37,000  Level FlightAware
03:00PM 38.4840 66.3220 158° South 459 528 37,000  Level FlightAware
03:01PM 38.4240 66.3530 158° South 459 528 37,000  Level FlightAware
03:02PM 38.3640 66.3840 158° South 459 528 37,000  Level FlightAware
03:03PM 38.2660 66.4340 158° South 459 528 37,000  Level FlightAware
03:03PM 38.2250 66.4550 158° South 459 528 37,000  Level FlightAware
03:06PM 38.0395 66.6960 134° Southeast  Level Estimated
03:07PM 37.9631 66.7946 134° Southeast  Level Estimated
03:08PM 37.8867 66.8931 135° Southeast  Level Estimated
03:09PM 37.8101 66.9914 135° Southeast  Level Estimated
03:10PM 37.7335 67.0894 135° Southeast  Level Estimated
03:11PM 37.6568 67.1873 135° Southeast  Level Estimated
03:12PM 37.5800 67.2850 135° Southeast  Level Estimated
03:13PM 37.5031 67.3824 135° Southeast  Level Estimated
03:14PM 37.4262 67.4797 135° Southeast  Level Estimated
03:15PM 37.3491 67.5767 135° Southeast  Level Estimated
03:16PM 37.2720 67.6736 135° Southeast  Level Estimated
03:17PM 37.1948 67.7702 135° Southeast  Level Estimated
03:18PM 37.1176 67.8667 135° Southeast  Level Estimated
03:19PM 37.0402 67.9630 135° Southeast  Level Estimated
03:20PM 36.9628 68.0590 135° Southeast  Level Estimated
03:21PM 36.8853 68.1549 135° Southeast  Level Estimated
03:22PM 36.8077 68.2506 135° Southeast  Level Estimated
03:23PM 36.7301 68.3461 135° Southeast  Level Estimated
03:24PM 36.6524 68.4414 135° Southeast  Level Estimated
03:25PM 36.5746 68.5365 136° Southeast  Level Estimated
03:26PM 36.4967 68.6314 136° Southeast  Level Estimated
03:27PM 36.4187 68.7261 136° Southeast  Level Estimated
03:28PM 36.3407 68.8206 136° Southeast  Level Estimated
03:29PM 36.2626 68.9150 136° Southeast  Level Estimated
03:30PM 36.1844 69.0091 136° Southeast  Level Estimated
03:31PM 36.1062 69.1031 136° Southeast  Level Estimated
03:32PM 36.0279 69.1968 136° Southeast  Level Estimated
03:33PM 35.9495 69.2904 136° Southeast  Level Estimated
03:34PM 35.8710 69.3838 136° Southeast  Level Estimated
03:35PM 35.7925 69.4771 136° Southeast  Level Estimated
03:36PM 35.7138 69.5701 136° Southeast  Level Estimated
03:37PM 35.6352 69.6629 136° Southeast  Level Estimated
03:38PM 35.5564 69.7556 136° Southeast  Level Estimated
03:39PM 35.4776 69.8481 136° Southeast  Level Estimated
03:40PM 35.3987 69.9404 136° Southeast  Level Estimated
03:41PM 35.3198 70.0325 136° Southeast  Level Estimated
03:42PM 35.2407 70.1244 136° Southeast  Level Estimated
03:42PM 33.4940 69.7890 136° Southeast 509 586 37,000  Level FlightAware
03:42PM 33.4290 69.8300 152° Southeast 509 586 37,000  Level FlightAware
03:43PM 33.3690 69.8690 152° Southeast 509 586 37,000  Level FlightAware
03:43PM 33.3040 69.9100 152° Southeast 509 586 37,000  Level FlightAware
03:44PM 33.2390 69.9520 152° Southeast 509 586 37,000  Level FlightAware
03:44PM 33.1280 70.0220 152° Southeast 493 567 37,000  Level FlightAware
03:45PM 33.0890 70.0460 153° Southeast 488 562 37,000  Level FlightAware
03:46PM 32.9590 70.1390 149° Southeast 459 528 37,000  Level FlightAware
03:47PM 32.8520 70.2180 148° Southeast 457 526 37,000  Level FlightAware
03:48PM 32.7260 70.3070 149° Southeast 459 528 37,000  Level FlightAware
03:49PM 32.6730 70.3450 149° Southeast 458 527 37,000  Level FlightAware
03:49PM 32.6020 70.3950 149° Southeast 456 525 37,000  Level FlightAware
03:50PM 32.5330 70.4450 149° Southeast 455 524 37,000  Level FlightAware
03:51PM 32.4620 70.4970 148° Southeast 454 522 37,000  Level FlightAware
03:52PM 32.3560 70.5720 149° Southeast 451 519 37,000  Level FlightAware
03:53PM 32.2450 70.6510 149° Southeast 450 518 37,000  Level FlightAware
03:53PM 32.1900 70.6900 149° Southeast 450 518 37,000  Level FlightAware
03:54PM 32.1400 70.7250 149° Southeast 450 518 37,000  Level FlightAware
03:54PM 32.0710 70.7740 149° Southeast 451 519 37,000  Level FlightAware
03:55PM 31.9740 70.8560 144° Southeast 465 535 37,000  Level FlightAware
03:56PM 31.9210 70.9170 136° Southeast 474 545 37,000  Level FlightAware
03:57PM 31.8510 71.0260 127° Southeast 486 559 37,000  Level FlightAware
03:57PM 31.8150 71.1030 119° Southeast 490 564 37,000  Level FlightAware
03:58PM 31.7820 71.1750 118° Southeast 487 560 37,000  Level FlightAware
03:59PM 31.7190 71.3150 118° Southeast 484 557 37,000  Level FlightAware
03:59PM 31.6910 71.3770 118° Southeast 483 556 37,000  Level FlightAware
04:00PM 31.6480 71.4710 118° Southeast 482 555 37,000  Level FlightAware
04:00PM 31.6140 71.5470 118° Southeast 482 555 37,000  Level FlightAware
04:01PM 31.5510 71.6830 119° Southeast 484 557 37,000  Level FlightAware
04:02PM 31.4870 71.8230 118° Southeast 488 562 37,000  Level FlightAware
04:03PM 31.4460 71.9110 119° Southeast 488 562 37,000  Level FlightAware
04:04PM 31.4080 71.9950 118° Southeast 487 560 37,000  Level FlightAware
04:05PM 31.3440 72.1470 116° Southeast 495 570 37,000  Level FlightAware
04:05PM 31.3180 72.2420 108° East 503 579 37,000  Level FlightAware
04:06PM 31.3020 72.3370 101° East 510 587 37,000  Level FlightAware
04:06PM 31.2940 72.4310 96° East 516 594 37,000  Level FlightAware
04:07PM 31.2970 72.5460 88° East 522 601 37,000  Level FlightAware
04:08PM 31.3090 72.6480 82° East 524 603 37,000  Level FlightAware
04:08PM 31.3130 72.7300 87° East 522 601 37,000  Level FlightAware
04:09PM 31.3150 72.8160 88° East 523 602 37,000  Level FlightAware
04:09PM 31.3170 72.9250 89° East 524 603 37,000  Level FlightAware
04:10PM 31.3200 73.0160 88° East 524 603 37,000  Level FlightAware
04:10PM 31.3220 73.1150 89° East 524 603 37,000  Level FlightAware
04:12PM 31.3260 73.3130 89° East 525 604 37,000  Level FlightAware
04:13PM 31.3300 73.4940 88° East 527 606 37,000  Level FlightAware
04:14PM 31.3330 73.6580 89° East 528 608 37,000  Level FlightAware
04:14PM 31.3350 73.7530 89° East 530 610 37,000  Level FlightAware
04:15PM 31.3370 73.9050 89° East 531 611 37,000  Level FlightAware
04:16PM 31.3390 74.0160 89° East 530 610 37,000  Level FlightAware
04:16PM 31.3400 74.0960 89° East 529 609 37,000  Level FlightAware
04:17PM 31.3430 74.2770 89° East 527 606 37,000  Level FlightAware
04:18PM 31.3330 74.4060 95° East 517 595 37,000  Level FlightAware
04:18PM 31.3210 74.4630 104° East 511 588 37,000  Level FlightAware
04:19PM 31.2900 74.5590 111° Southeast 501 577 37,000  Level FlightAware
04:20PM 31.2410 74.6600 120° Southeast 489 563 37,000  Level FlightAware
04:21PM 31.1520 74.7780 131° Southeast 472 543 37,000  Level FlightAware
04:21PM 31.1120 74.8220 137° Southeast 471 542 37,000  Level FlightAware
04:22PM 31.0630 74.8750 137° Southeast 471 542 37,000  Level FlightAware
04:22PM 31.0140 74.9280 137° Southeast 471 542 37,000  Level FlightAware
04:23PM 30.9310 75.0180 137° Southeast 471 542 37,000  Level FlightAware
04:24PM 30.8800 75.0740 137° Southeast 471 542 37,000  Level FlightAware
04:25PM 30.8310 75.1270 137° Southeast 471 542 37,000  Level FlightAware
04:26PM 30.7340 75.2330 137° Southeast 471 542 37,000  Level FlightAware
04:28PM 30.5909 75.3597 143° Southeast  Level Estimated
04:28PM 30.4270 75.3500 143° Southeast 442 509 37,000  Level FlightAware
04:28PM 30.3870 75.3620 165° South 442 509 37,000  Level FlightAware
04:29PM 30.2840 75.3920 166° South 442 509 37,000  Level FlightAware
04:30PM 30.2420 75.4040 166° South 442 509 37,000  Level FlightAware
04:30PM 30.1830 75.4210 166° South 442 509 37,000  Level FlightAware
04:31PM 30.1030 75.4440 166° South 442 509 37,000  Level FlightAware
04:31PM 30.0630 75.4550 167° South 442 509 37,000 -180 Level FlightAware
04:32PM 29.9550 75.6400 124° Southeast 460 529 36,800 -360 Descending FlightAware
04:33PM 29.8640 75.7360 138° Southeast 461 531 36,400 -240 Descending FlightAware
04:34PM 29.7860 75.8200 137° Southeast 461 531 36,400  Level FlightAware
04:35PM 29.7090 75.9030 137° Southeast 461 531 36,400 -3,420 Level FlightAware
04:35PM 29.6200 75.9910 139° Southeast 628 723 31,600 -4,680 Descending FlightAware
04:36PM 29.5370 76.0780 138° Southeast 460 529 30,200 -1,740 Descending FlightAware
04:37PM 29.4430 76.1760 138° Southeast 449 517 28,600 -1,800 Descending FlightAware
04:38PM 29.4180 76.2020 138° Southeast 446 513 28,200 -1,620 Descending FlightAware
04:38PM 29.3400 76.2840 137° Southeast 436 502 26,800 -1,560 Descending FlightAware
04:39PM 29.2510 76.3750 138° Southeast 424 488 25,300 -1,620 Descending FlightAware
04:40PM 29.2050 76.4230 138° Southeast 419 482 24,400 -1,980 Descending FlightAware
04:41PM 29.1350 76.5040 135° Southeast 426 490 22,600 -3,000 Descending FlightAware
04:42PM 29.0830 76.6380 114° Southeast 400 460 18,600 -2,580 Descending FlightAware
04:43PM 29.0490 76.7250 114° Southeast 348 400 17,700 -1,260 Descending FlightAware
04:43PM 29.0280 76.7790 114° Southeast 326 375 16,900 -1,200 Descending FlightAware
04:44PM 28.9950 76.8620 114° Southeast 315 362 16,000 -1,260 Descending FlightAware
04:45PM 28.9750 76.9130 114° Southeast 324 373 15,100 -1,320 Descending FlightAware
04:46PM 28.9430 76.9930 115° Southeast 313 360 14,200 -1,140 Descending FlightAware
04:46PM 28.9240 77.0330 118° Southeast 308 354 13,600 -1,680 Descending FlightAware
04:47PM 28.8910 77.0820 128° Southeast 304 350 12,400 -1,680 Descending FlightAware
04:47PM 28.8600 77.1270 128° Southeast 286 329 11,600 -1,200 Descending FlightAware
04:48PM 28.8300 77.1710 128° Southeast 270 311 10,900 -1,320 Descending FlightAware
04:48PM 28.8060 77.2050 129° Southeast 279 321 10,100 -1,680 Descending FlightAware
04:49PM 28.7840 77.2370 128° Southeast 273 314 9,300 -1,860 Descending FlightAware
04:49PM 28.7640 77.2650 129° Southeast 266 306 8,500 -1,980 Descending FlightAware
04:50PM 28.7400 77.2970 131° Southeast 259 298 7,500 -1,980 Descending FlightAware
04:50PM 28.7070 77.3190 150° Southeast 252 290 6,400 -2,040 Descending FlightAware
04:51PM 28.6820 77.3300 159° South 250 288 5,600 -2,040 Descending FlightAware
04:51PM 28.6550 77.3420 159° South 250 288 4,800 -2,280 Descending FlightAware
04:52PM 28.6310 77.3510 162° South 250 288 3,900 -1,680 Descending FlightAware
04:52PM 28.6000 77.3480 185° South 223 257 3,400 -1,320 Descending FlightAware
04:52PM 28.5730 77.3420 191° South 218 251 2,700 -900 Descending FlightAware
04:53PM 28.5460 77.3360 191° South 197 227 2,600 -120 Descending FlightAware
04:53PM 28.5260 77.3180 218° Southwest 165 190 2,600 -120 Level FlightAware
04:54PM 28.5190 77.2940 252° West 159 183 2,500 -120 Descending FlightAware
04:54PM 28.5160 77.2780 258° West 158 182 2,500  Level FlightAware
04:55PM 28.5100 77.2520 255° West 158 182 2,500  Level FlightAware
04:55PM 28.5130 77.2280 278° West 154 177 2,500  Level FlightAware
04:56PM 28.5170 77.2040 281° West 153 176 2,500 -360 Level FlightAware
04:56PM 28.5210 77.1870 285° West 152 175 2,200 -720 Descending FlightAware
04:57PM 28.5260 77.1640 284° West 134 154 1,900 -780 Descending FlightAware
04:57PM 28.5300 77.1450 283° West 131 151 1,500 -780 Descending FlightAware
04:58PM 28.5340 77.1260 283° West 134 154 1,200 -720 Descending FlightAware
04:58PM 28.5380 77.1090 285° West 133 153 900 -540 Descending FlightAware
04:59PM 28.5410 77.0930 282° West 133 153 700 -420 Descending FlightAware
04:59PM 28.5430 77.0870 291° West 133 153 -5,280 Descending FlightAware
05:00PM 28.5450 77.0750 281° West 133 153  Level FlightAware
05:00PM 28.5460 77.0740 319° Northwest 133 153  Level FlightAware
05:00PM 28.5470 77.0740 360° North 133 153  Level FlightAware
05:01PM 28.5480 77.0750 41° Northeast 133 153  Level FlightAware
05:01PM 28.5490 77.0760 41° Northeast 133 153  Level FlightAware
05:02PM 28.5510 77.0760 360° North 133 153  Level FlightAware
05:02PM 28.5520 77.0760 360° North 133 153  Level FlightAware
05:03PM 28.5550 77.0770 16° North 133 153  Level FlightAware
05:03PM 28.5560 77.0780 41° Northeast 133 153  Level FlightAware
05:04PM 28.5670 77.0880 39° Northeast 133 153  Level FlightAware
05:07PM 28.5665 77.1031 92° East  Level Estimated
05:08PM 28.5665 77.1031 270° West  Level Estimated
05:09PM 28.5665 77.1031 270° West  Level Estimated
05:10PM 28.5665 77.1031 270° West  Level Estimated
05:11PM 28.5665 77.1031 270° West  Level Estimated
05:12PM 28.5665 77.1031 270° West  Level Estimated
05:13PM 28.5665 77.1031 270° West  Level Estimated
05:14PM 28.5665 77.1031 270° West  Level Estimated
05:15PM 28.5665 77.1031 270° West  Level Estimated
05:16PM 28.5665 77.1031 270° West  Level Estimated
05:17PM 28.5665 77.1031 270° West  Level Estimated
05:18PM 28.5665 77.1031 270° West  Level Estimated
05:19PM 28.5665 77.1031 270° West  Level Estimated
05:20PM 28.5665 77.1031 270° West  Level Estimated
05:21PM 28.5665 77.1031 270° West  Level Estimated
05:22PM 28.5665 77.1031 270° West  Level Estimated
05:23PM 28.5665 77.1031 270° West  Level Estimated
05:24PM 28.5665 77.1031 270° West  Level Estimated
05:25PM 28.5665 77.1031 270° West  Level Estimated
05:26PM 28.5665 77.1031 270° West  Level Estimated